全部
Boggabri Airport YBOG 天氣
There is no TAF data available at YBOG or any nearby airports.
There is no METAR data available at YBOG. Showing METAR data for YGDH (21 mi SE).
GUH近期METAR歷史資料(YBOG無資料)
| Date | Time (AEST) | Flight Rules | Wind Dir. | Speed | Type | Height AGL (ft) | Visibility | Temp (°C) | Temp (°F) | Dew Point (°C) | Dew Point (°F) | Rel. Humid. | Pressure | Density Altitude | Remarks |
|---|---|---|---|---|---|---|---|---|---|---|---|---|---|---|---|
| 05-五月 | 19:00 | n/a | 120° | 1 kt | Missing | 16° | 60° | 13° | 55° | 82% | 1019 mb | 812 ft | |||
| 05-五月 | 18:00 | n/a | 120° | 2 kt | Missing | 16° | 60° | 11° | 51° | 72% | 1019 mb | 812 ft | |||
| 05-五月 | 17:00 | n/a | 110° | 3 kt | Missing | 18° | 64° | 10° | 50° | 59% | 1018 mb | 1,081 ft | |||
| 05-五月 | 16:00 | n/a | 140° | 5 kt | Missing | 19° | 66° | 10° | 50° | 56% | 1018 mb | 1,201 ft | |||
| 05-五月 | 15:00 | n/a | 120° | 8 kt | Missing | 19° | 66° | 9° | 48° | 52% | 1018 mb | 1,201 ft | |||
| 05-五月 | 14:00 | n/a | 130° | 7 kt | Missing | 19° | 66° | 13° | 55° | 68% | 1018 mb | 1,201 ft | |||
| 05-五月 | 13:00 | n/a | 180° | 7 kt | Missing | 18° | 64° | 14° | 57° | 77% | 1018 mb | 1,081 ft | |||
| 05-五月 | 12:00 | n/a | 160° | 7 kt | Missing | 18° | 64° | 15° | 59° | 83% | 1019 mb | 1,052 ft | |||
| 05-五月 | 11:00 | n/a | 140° | 4 kt | Missing | 19° | 66° | 15° | 59° | 78% | 1019 mb | 1,172 ft | |||
| 05-五月 | 10:00 | n/a | 170° | 1 kt | Missing | 18° | 64° | 15° | 59° | 83% | 1019 mb | 1,052 ft | |||
| 05-五月 | 09:00 | n/a | 180° | 5 kt | Missing | 17° | 62° | 15° | 59° | 88% | 1019 mb | 932 ft | |||
| 05-五月 | 08:00 | n/a | 260° | 3 kt | Missing | 16° | 60° | 15° | 59° | 94% | 1019 mb | 812 ft | |||
| 05-五月 | 07:00 | n/a | Calm | Missing | 16° | 60° | 16° | 60° | 100% | 1018 mb | 841 ft | ||||
| 05-五月 | 06:00 | n/a | 30° | 4 kt | Missing | 17° | 62° | 16° | 60° | 94% | 1018 mb | 961 ft | |||
| 05-五月 | 05:00 | n/a | 10° | 5 kt | Missing | 16° | 60° | 16° | 60° | 100% | 1018 mb | 841 ft | |||
| 05-五月 | 04:00 | n/a | 80° | 3 kt | Missing | 16° | 60° | 16° | 60° | 100% | 1018 mb | 841 ft | |||
| 05-五月 | 03:00 | n/a | 240° | 3 kt | Missing | 17° | 62° | 16° | 60° | 94% | 1017 mb | 991 ft | |||
| 05-五月 | 02:00 | n/a | 180° | 4 kt | Missing | 17° | 62° | 16° | 60° | 94% | 1017 mb | 991 ft | |||
| 05-五月 | 01:00 | n/a | 350° | 3 kt | Missing | 16° | 60° | 16° | 60° | 100% | 1018 mb | 841 ft | |||
| 05-五月 | 00:00 | n/a | Calm | Missing | 17° | 62° | 15° | 59° | 88% | 1017 mb | 991 ft | ||||
| 04-五月 | 23:00 | n/a | 200° | 7 kt | Missing | 17° | 62° | 15° | 59° | 88% | 1017 mb | 991 ft | |||
| 04-五月 | 22:00 | n/a | 190° | 5 kt | Missing | 17° | 62° | 15° | 59° | 88% | 1017 mb | 991 ft | |||
| 04-五月 | 21:00 | n/a | 150° | 6 kt | Missing | 17° | 62° | 15° | 59° | 88% | 1017 mb | 991 ft | |||
| 04-五月 | 20:00 | n/a | 130° | 6 kt | Missing | 17° | 62° | 15° | 59° | 88% | 1017 mb | 991 ft |
登入
| 您的瀏覽器不支援. 升級您的瀏覽器 |
